Time;durP1;ratioP1;P1;durP2;ratioP2;P2;SDS_P1;SDS_P2;PMS_P1;PMS_P2;Temp;Humidity;BMP_temperature;BMP_pressure;BME280_temperature;BME280_humidity;BME280_pressure;Samples;Min_cycle;Max_cycle;Signal;HPM_P1;HPM_P2
2023/07/09 00:02:02;;;;;;;30.00;25.00;;;;;;;;;;112618;1231;58984;-73
2023/07/09 00:04:28;;;;;;;29.90;25.40;;;;;;;;;;112263;1230;58967;-74
2023/07/09 00:06:55;;;;;;;34.30;26.20;;;;;;;;;;112551;1233;59341;-74
2023/07/09 00:09:21;;;;;;;31.20;25.60;;;;;;;;;;112616;1233;58905;-74
2023/07/09 00:11:47;;;;;;;31.90;25.90;;;;;;;;;;112664;1231;58926;-74
2023/07/09 00:14:14;;;;;;;31.70;25.30;;;;;;;;;;112585;1232;59759;-74
2023/07/09 00:16:41;;;;;;;32.40;26.90;;;;;;;;;;112589;1230;59144;-73
2023/07/09 00:19:16;;;;;;;34.80;28.10;;;;;;;;;;112603;1232;59020;-73
2023/07/09 00:21:44;;;;;;;29.90;25.90;;;;;;;;;;112633;1230;58834;-74
2023/07/09 00:24:13;;;;;;;29.80;26.50;;;;;;;;;;112695;1232;61739;-74
2023/07/09 00:26:40;;;;;;;29.50;25.30;;;;;;;;;;112250;1232;59008;-74
2023/07/09 00:29:10;;;;;;;33.70;25.90;;;;;;;;;;112614;1232;58929;-72
2023/07/09 00:31:38;;;;;;;;;;;;;;;;;;112571;1232;58841;-73
2023/07/09 00:34:04;;;;;;;29.00;23.30;;;;;;;;;;112591;1230;58933;-74
2023/07/09 00:36:33;;;;;;;27.50;23.90;;;;;;;;;;112610;1232;58933;-73
2023/07/09 00:39:04;;;;;;;31.50;25.10;;;;;;;;;;112626;1230;58918;-73
2023/07/09 00:41:34;;;;;;;29.20;24.70;;;;;;;;;;112588;1232;59516;-73
2023/07/09 00:44:18;;;;;;;32.60;25.70;;;;;;;;;;112620;1230;58891;-73
2023/07/09 00:46:47;;;;;;;31.80;25.10;;;;;;;;;;112588;1229;58847;-74
2023/07/09 00:49:16;;;;;;;29.70;23.80;;;;;;;;;;112625;1231;62036;-74
2023/07/09 00:51:45;;;;;;;25.70;22.60;;;;;;;;;;112571;1234;58844;-74
2023/07/09 00:54:14;;;;;;;25.10;22.40;;;;;;;;;;112603;1230;59014;-74
2023/07/09 00:56:41;;;;;;;29.50;25.00;;;;;;;;;;112591;1231;58885;-74
2023/07/09 00:59:17;;;;;;;30.70;26.10;;;;;;;;;;112684;1230;59191;-73
2023/07/09 01:01:42;;;;;;;30.80;25.40;;;;;;;;;;112657;1230;61754;-72
2023/07/09 01:04:09;;;;;;;29.40;24.50;;;;;;;;;;112617;1231;59309;-73
2023/07/09 01:06:45;;;;;;;29.30;25.30;;;;;;;;;;112597;1230;58963;-72
2023/07/09 01:09:11;;;;;;;27.90;23.40;;;;;;;;;;112613;1230;58916;-73
2023/07/09 01:11:38;;;;;;;26.70;22.80;;;;;;;;;;112643;1230;58936;-73
2023/07/09 01:14:06;;;;;;;27.10;22.20;;;;;;;;;;112613;1231;60655;-73
2023/07/09 01:16:33;;;;;;;26.40;23.00;;;;;;;;;;112622;1230;58872;-73
2023/07/09 01:19:00;;;;;;;29.50;23.70;;;;;;;;;;112641;1230;59591;-72
2023/07/09 01:21:27;;;;;;;26.90;21.80;;;;;;;;;;112616;1230;58880;-73
2023/07/09 01:23:53;;;;;;;26.70;23.10;;;;;;;;;;112568;1230;58885;-73
2023/07/09 01:26:20;;;;;;;26.20;23.40;;;;;;;;;;112652;1232;58832;-73
2023/07/09 01:28:46;;;;;;;26.00;22.10;;;;;;;;;;112630;1230;58965;-73
2023/07/09 01:31:13;;;;;;;25.60;20.90;;;;;;;;;;112611;1233;59374;-72
2023/07/09 01:33:39;;;;;;;25.10;22.20;;;;;;;;;;112635;1230;58900;-72
2023/07/09 01:36:06;;;;;;;25.80;22.70;;;;;;;;;;112616;1232;59010;-73
2023/07/09 01:38:33;;;;;;;26.30;23.40;;;;;;;;;;112596;1230;61396;-72
2023/07/09 01:40:59;;;;;;;28.40;23.60;;;;;;;;;;112608;1231;58859;-73
2023/07/09 01:43:26;;;;;;;27.70;23.70;;;;;;;;;;112603;1230;58787;-73
2023/07/09 01:45:51;;;;;;;29.50;25.00;;;;;;;;;;112565;1230;58911;-73
2023/07/09 01:48:19;;;;;;;30.90;27.50;;;;;;;;;;112640;1231;58954;-73
2023/07/09 01:50:46;;;;;;;31.40;28.20;;;;;;;;;;112642;1230;60566;-73
2023/07/09 01:53:13;;;;;;;28.30;24.90;;;;;;;;;;112598;1231;58775;-73
2023/07/09 01:55:38;;;;;;;30.80;26.50;;;;;;;;;;112577;1231;58832;-73
2023/07/09 01:58:06;;;;;;;31.30;25.40;;;;;;;;;;112641;1230;58948;-73
2023/07/09 02:00:34;;;;;;;29.20;24.80;;;;;;;;;;112589;1231;59056;-73
2023/07/09 02:03:01;;;;;;;26.60;23.60;;;;;;;;;;112596;1230;61678;-73
2023/07/09 02:05:30;;;;;;;25.30;22.70;;;;;;;;;;112245;1231;58980;-72
2023/07/09 02:07:56;;;;;;;24.90;22.30;;;;;;;;;;112618;1230;58919;-72
2023/07/09 02:10:22;;;;;;;24.00;21.60;;;;;;;;;;112535;1231;58969;-72
2023/07/09 02:12:47;;;;;;;24.70;22.20;;;;;;;;;;112636;1230;58961;-72
2023/07/09 02:15:14;;;;;;;25.30;22.60;;;;;;;;;;112626;1230;58905;-72
2023/07/09 02:17:40;;;;;;;22.90;20.40;;;;;;;;;;112643;1231;58942;-72
2023/07/09 02:20:06;;;;;;;23.30;20.80;;;;;;;;;;112281;1230;58988;-72
2023/07/09 02:22:33;;;;;;;23.00;20.40;;;;;;;;;;112198;1230;58977;-72
2023/07/09 02:24:59;;;;;;;22.00;19.70;;;;;;;;;;112706;1230;58882;-73
2023/07/09 02:27:24;;;;;;;23.90;20.10;;;;;;;;;;112633;1230;58956;-72
2023/07/09 02:29:50;;;;;;;21.00;18.90;;;;;;;;;;112657;1231;58933;-72
2023/07/09 02:32:20;;;;;;;22.10;19.10;;;;;;;;;;112594;1230;58924;-72
2023/07/09 02:34:49;;;;;;;20.30;18.30;;;;;;;;;;112314;1230;58985;-72
2023/07/09 02:37:16;;;;;;;22.50;19.90;;;;;;;;;;112597;1229;60765;-72
2023/07/09 02:39:43;;;;;;;21.60;19.30;;;;;;;;;;112260;1230;59352;-72
2023/07/09 02:42:09;;;;;;;25.30;22.60;;;;;;;;;;112598;1230;58884;-72
2023/07/09 02:44:35;;;;;;;23.00;20.40;;;;;;;;;;112236;1230;59290;-73
2023/07/09 02:47:01;;;;;;;21.90;19.60;;;;;;;;;;112617;1230;58862;-73
2023/07/09 02:49:27;;;;;;;24.00;20.60;;;;;;;;;;112582;1230;58965;-73
2023/07/09 02:51:53;;;;;;;23.20;20.00;;;;;;;;;;112563;1230;59025;-73
2023/07/09 02:54:18;;;;;;;23.60;20.80;;;;;;;;;;112588;1230;59877;-73
2023/07/09 02:56:44;;;;;;;23.60;21.20;;;;;;;;;;112356;1230;58974;-73
2023/07/09 02:59:11;;;;;;;23.20;20.90;;;;;;;;;;112645;1231;59783;-73
2023/07/09 03:01:36;;;;;;;24.80;22.30;;;;;;;;;;112635;1231;58967;-73
2023/07/09 03:04:03;;;;;;;25.10;22.40;;;;;;;;;;112504;1230;58883;-73
2023/07/09 03:06:29;;;;;;;23.00;20.60;;;;;;;;;;112142;1233;59019;-73
2023/07/09 03:08:55;;;;;;;21.40;19.10;;;;;;;;;;112187;1233;59310;-73
2023/07/09 03:11:21;;;;;;;19.90;17.90;;;;;;;;;;112228;1233;59026;-73
2023/07/09 03:13:47;;;;;;;21.60;19.30;;;;;;;;;;112199;1233;58837;-73
2023/07/09 03:16:13;;;;;;;22.30;19.30;;;;;;;;;;112194;1233;59347;-73
2023/07/09 03:18:39;;;;;;;21.90;19.60;;;;;;;;;;112191;1233;58962;-73
2023/07/09 03:21:05;;;;;;;22.20;19.90;;;;;;;;;;112244;1233;59086;-73
2023/07/09 03:23:31;;;;;;;21.40;19.30;;;;;;;;;;112175;1233;58959;-73
2023/07/09 03:25:57;;;;;;;24.10;21.50;;;;;;;;;;112220;1233;58893;-73
2023/07/09 03:28:23;;;;;;;23.80;20.80;;;;;;;;;;112185;1233;59070;-73
2023/07/09 03:30:49;;;;;;;22.80;20.50;;;;;;;;;;112241;1234;59019;-73
2023/07/09 03:33:15;;;;;;;21.60;19.40;;;;;;;;;;112245;1233;59135;-73
2023/07/09 03:35:41;;;;;;;20.70;18.70;;;;;;;;;;111998;1234;59013;-73
2023/07/09 03:38:08;;;;;;;21.90;19.60;;;;;;;;;;112443;1231;58960;-73
2023/07/09 03:40:34;;;;;;;19.90;17.90;;;;;;;;;;112592;1230;58863;-73
2023/07/09 03:43:00;;;;;;;20.80;18.70;;;;;;;;;;112601;1232;58956;-73
2023/07/09 03:45:26;;;;;;;18.60;16.80;;;;;;;;;;112606;1229;58904;-73
2023/07/09 03:47:51;;;;;;;18.60;16.90;;;;;;;;;;112664;1229;58945;-73
2023/07/09 03:50:17;;;;;;;18.30;16.50;;;;;;;;;;112206;1233;58884;-74
2023/07/09 03:52:43;;;;;;;17.50;15.80;;;;;;;;;;112599;1230;58835;-73
2023/07/09 03:55:09;;;;;;;16.80;15.40;;;;;;;;;;112579;1233;58947;-73
2023/07/09 03:57:35;;;;;;;18.50;16.80;;;;;;;;;;112631;1230;58983;-74
2023/07/09 04:00:01;;;;;;;17.50;15.70;;;;;;;;;;112579;1230;59434;-74
2023/07/09 04:02:27;;;;;;;17.00;15.40;;;;;;;;;;112601;1230;58960;-74
2023/07/09 04:04:52;;;;;;;17.10;15.40;;;;;;;;;;112653;1231;58976;-74
2023/07/09 04:07:18;;;;;;;14.60;13.10;;;;;;;;;;112648;1230;58866;-74
2023/07/09 04:09:44;;;;;;;15.00;13.40;;;;;;;;;;112589;1230;59146;-74
2023/07/09 04:12:09;;;;;;;12.90;11.70;;;;;;;;;;112623;1231;59162;-74
2023/07/09 04:14:35;;;;;;;12.60;11.50;;;;;;;;;;112238;1230;58974;-74
2023/07/09 04:17:01;;;;;;;11.80;10.80;;;;;;;;;;112527;1230;58911;-74
2023/07/09 04:19:27;;;;;;;11.20;10.20;;;;;;;;;;112586;1230;58943;-74
2023/07/09 04:21:53;;;;;;;11.20;10.00;;;;;;;;;;112654;1230;58945;-74
2023/07/09 04:24:19;;;;;;;11.10;10.10;;;;;;;;;;112587;1230;58961;-74
2023/07/09 04:26:45;;;;;;;11.50;10.30;;;;;;;;;;112604;1230;59021;-74
2023/07/09 04:29:11;;;;;;;10.30;9.30;;;;;;;;;;112649;1230;58894;-74
2023/07/09 04:31:37;;;;;;;9.90;8.90;;;;;;;;;;112593;1230;58886;-74
2023/07/09 04:34:03;;;;;;;9.10;8.20;;;;;;;;;;112586;1230;59041;-74
2023/07/09 04:36:29;;;;;;;9.00;8.30;;;;;;;;;;112639;1229;58937;-73
2023/07/09 04:38:54;;;;;;;8.70;7.90;;;;;;;;;;112613;1229;59229;-73
2023/07/09 04:41:20;;;;;;;9.30;7.50;;;;;;;;;;112512;1231;58957;-73
2023/07/09 04:43:46;;;;;;;8.80;7.70;;;;;;;;;;112586;1230;58958;-73
2023/07/09 04:46:11;;;;;;;9.30;8.40;;;;;;;;;;112594;1231;58812;-73
2023/07/09 04:48:38;;;;;;;9.70;8.20;;;;;;;;;;112571;1230;59001;-73
2023/07/09 04:51:04;;;;;;;7.90;7.30;;;;;;;;;;112625;1231;58841;-73
2023/07/09 04:53:30;;;;;;;9.10;8.20;;;;;;;;;;112581;1230;59042;-73
2023/07/09 04:55:56;;;;;;;8.80;8.00;;;;;;;;;;112064;1230;59061;-73
2023/07/09 04:58:21;;;;;;;8.80;8.10;;;;;;;;;;112603;1229;58887;-73
2023/07/09 05:00:47;;;;;;;8.50;7.80;;;;;;;;;;112684;1230;58917;-74
2023/07/09 05:03:13;;;;;;;7.70;6.90;;;;;;;;;;112590;1229;59599;-74
2023/07/09 05:05:46;;;;;;;8.50;7.80;;;;;;;;;;112624;1229;59057;-78
2023/07/09 05:08:12;;;;;;;8.10;7.50;;;;;;;;;;112642;1231;58931;-79
2023/07/09 05:10:49;;;;;;;8.60;7.40;;;;;;;;;;112643;1231;58952;-79
2023/07/09 05:13:15;;;;;;;7.90;7.30;;;;;;;;;;112710;1230;58919;-78
2023/07/09 05:15:42;;;;;;;7.50;6.70;;;;;;;;;;112634;1229;58907;-79
2023/07/09 05:18:08;;;;;;;7.70;7.00;;;;;;;;;;112601;1229;58907;-78
2023/07/09 05:20:34;;;;;;;8.90;6.90;;;;;;;;;;112669;1230;59017;-79
2023/07/09 05:23:00;;;;;;;7.50;6.40;;;;;;;;;;112630;1230;58934;-79
2023/07/09 05:25:26;;;;;;;8.00;7.30;;;;;;;;;;112658;1231;58857;-78
2023/07/09 05:27:51;;;;;;;7.60;7.00;;;;;;;;;;112643;1230;58937;-78
2023/07/09 05:30:18;;;;;;;10.10;7.00;;;;;;;;;;112490;1229;59428;-79
2023/07/09 05:32:44;;;;;;;6.80;6.10;;;;;;;;;;112792;1230;58941;-79
2023/07/09 05:35:09;;;;;;;7.80;7.00;;;;;;;;;;112643;1230;58803;-79
2023/07/09 05:37:36;;;;;;;7.40;6.60;;;;;;;;;;112689;1230;58986;-79
2023/07/09 05:40:02;;;;;;;7.10;6.40;;;;;;;;;;112631;1231;58759;-78
2023/07/09 05:42:28;;;;;;;7.40;6.50;;;;;;;;;;112634;1230;58791;-79
2023/07/09 05:44:53;;;;;;;7.50;6.80;;;;;;;;;;112665;1230;59349;-79
2023/07/09 05:47:19;;;;;;;6.60;6.10;;;;;;;;;;112706;1230;58820;-77
2023/07/09 05:49:49;;;;;;;7.50;6.50;;;;;;;;;;112625;1230;58941;-79
2023/07/09 05:52:15;;;;;;;6.70;6.10;;;;;;;;;;112620;1230;58928;-78
2023/07/09 05:54:41;;;;;;;6.10;5.60;;;;;;;;;;112670;1230;58958;-79
2023/07/09 05:57:07;;;;;;;6.20;5.70;;;;;;;;;;112633;1230;58992;-79
2023/07/09 05:59:32;;;;;;;6.30;5.50;;;;;;;;;;112654;1231;58780;-79
2023/07/09 06:02:00;;;;;;;6.40;5.80;;;;;;;;;;112328;1230;59446;-79
2023/07/09 06:04:26;;;;;;;5.70;5.20;;;;;;;;;;112638;1230;58843;-79
2023/07/09 06:06:52;;;;;;;5.80;5.30;;;;;;;;;;112638;1229;58908;-78
2023/07/09 06:09:17;;;;;;;6.70;6.10;;;;;;;;;;112577;1229;58942;-78
2023/07/09 06:11:43;;;;;;;6.10;5.60;;;;;;;;;;112327;1231;58928;-79
2023/07/09 06:14:09;;;;;;;6.20;5.30;;;;;;;;;;112680;1230;58956;-79
2023/07/09 06:16:36;;;;;;;6.70;6.10;;;;;;;;;;112441;1230;58862;-79
2023/07/09 06:19:03;;;;;;;6.30;5.70;;;;;;;;;;112635;1231;60646;-79
2023/07/09 06:21:29;;;;;;;6.30;5.70;;;;;;;;;;112240;1230;58930;-78
2023/07/09 06:23:55;;;;;;;6.60;6.00;;;;;;;;;;112658;1230;58942;-79
2023/07/09 06:26:20;;;;;;;6.40;4.90;;;;;;;;;;112700;1229;58880;-79
2023/07/09 06:28:46;;;;;;;5.70;5.20;;;;;;;;;;112661;1230;59332;-79
2023/07/09 06:31:12;;;;;;;6.00;5.00;;;;;;;;;;112642;1230;58921;-79
2023/07/09 06:33:38;;;;;;;6.20;5.60;;;;;;;;;;112649;1231;59700;-78
2023/07/09 06:36:04;;;;;;;5.50;4.90;;;;;;;;;;112662;1233;58934;-79
2023/07/09 06:38:30;;;;;;;5.70;5.20;;;;;;;;;;112324;1230;58993;-76
2023/07/09 06:40:56;;;;;;;7.10;5.30;;;;;;;;;;112669;1230;58993;-78
2023/07/09 06:43:22;;;;;;;5.80;5.20;;;;;;;;;;112686;1229;58951;-78
2023/07/09 06:45:52;;;;;;;6.50;5.60;;;;;;;;;;112608;1229;58971;-78
2023/07/09 06:48:18;;;;;;;5.50;4.60;;;;;;;;;;112644;1230;58822;-78
2023/07/09 06:50:44;;;;;;;6.10;5.50;;;;;;;;;;112635;1230;59010;-79
2023/07/09 06:53:10;;;;;;;5.90;5.40;;;;;;;;;;112664;1229;59380;-78
2023/07/09 06:55:36;;;;;;;5.70;5.10;;;;;;;;;;112649;1230;59099;-77
2023/07/09 06:58:01;;;;;;;8.20;4.60;;;;;;;;;;112623;1230;59001;-78
2023/07/09 07:00:27;;;;;;;6.10;5.10;;;;;;;;;;112394;1230;58984;-78
2023/07/09 07:02:53;;;;;;;5.60;5.10;;;;;;;;;;112745;1230;58979;-78
2023/07/09 07:05:19;;;;;;;6.00;5.00;;;;;;;;;;112645;1230;58813;-79
2023/07/09 07:07:44;;;;;;;5.20;4.80;;;;;;;;;;112484;1231;59343;-79
2023/07/09 07:10:11;;;;;;;5.20;4.60;;;;;;;;;;112616;1230;58884;-78
2023/07/09 07:12:44;;;;;;;5.40;4.90;;;;;;;;;;112211;1234;59114;-78
2023/07/09 07:15:10;;;;;;;6.40;4.80;;;;;;;;;;112248;1232;61700;-78
2023/07/09 07:17:36;;;;;;;5.20;4.60;;;;;;;;;;112278;1234;58957;-79
2023/07/09 07:20:02;;;;;;;6.20;4.60;;;;;;;;;;112253;1233;58928;-76
2023/07/09 07:22:28;;;;;;;5.20;4.80;;;;;;;;;;112281;1233;58873;-78
2023/07/09 07:24:53;;;;;;;6.00;5.00;;;;;;;;;;112261;1234;59027;-78
2023/07/09 07:27:19;;;;;;;5.70;5.20;;;;;;;;;;112236;1233;58998;-78
2023/07/09 07:29:45;;;;;;;5.50;5.00;;;;;;;;;;112255;1233;59139;-78
2023/07/09 07:32:11;;;;;;;5.10;4.70;;;;;;;;;;112304;1233;59512;-78
2023/07/09 07:34:36;;;;;;;6.00;5.30;;;;;;;;;;112265;1234;58873;-78
2023/07/09 07:37:03;;;;;;;5.30;4.80;;;;;;;;;;111906;1232;58921;-78
2023/07/09 07:39:29;;;;;;;6.10;5.30;;;;;;;;;;112157;1233;155028;-78
2023/07/09 07:41:55;;;;;;;5.20;4.70;;;;;;;;;;112045;1233;58944;-76
2023/07/09 07:44:21;;;;;;;7.10;5.90;;;;;;;;;;112464;1229;58820;-78
2023/07/09 07:46:47;;;;;;;5.90;4.80;;;;;;;;;;112341;1230;59363;-77
2023/07/09 07:49:13;;;;;;;5.40;4.90;;;;;;;;;;112647;1230;58818;-78
2023/07/09 07:51:39;;;;;;;6.60;5.80;;;;;;;;;;112628;1230;58921;-78
2023/07/09 07:54:06;;;;;;;8.40;6.10;;;;;;;;;;112645;1230;58954;-79
2023/07/09 07:56:32;;;;;;;6.70;5.90;;;;;;;;;;112506;1230;58946;-79
2023/07/09 07:58:57;;;;;;;5.30;4.70;;;;;;;;;;112839;1230;58849;-79
2023/07/09 08:01:23;;;;;;;6.90;4.50;;;;;;;;;;112740;1231;59167;-79
2023/07/09 08:03:49;;;;;;;5.20;4.70;;;;;;;;;;112701;1230;58925;-78
2023/07/09 08:06:15;;;;;;;6.10;4.60;;;;;;;;;;112517;1231;59274;-76
2023/07/09 08:08:40;;;;;;;4.40;4.10;;;;;;;;;;112640;1230;58953;-77
2023/07/09 08:11:07;;;;;;;5.60;4.20;;;;;;;;;;112696;1230;58955;-78
2023/07/09 08:13:34;;;;;;;5.90;4.20;;;;;;;;;;112619;1231;60574;-77
2023/07/09 08:16:00;;;;;;;6.00;4.40;;;;;;;;;;112651;1230;58918;-77
2023/07/09 08:18:26;;;;;;;4.50;4.10;;;;;;;;;;112664;1229;58957;-77
2023/07/09 08:20:51;;;;;;;4.00;3.70;;;;;;;;;;112722;1229;59061;-78
2023/07/09 08:23:17;;;;;;;4.90;3.80;;;;;;;;;;112690;1230;58904;-77
2023/07/09 08:25:43;;;;;;;6.70;4.10;;;;;;;;;;112596;1230;58968;-76
2023/07/09 08:28:08;;;;;;;4.60;3.50;;;;;;;;;;112606;1230;59154;-78
2023/07/09 08:30:35;;;;;;;4.10;3.60;;;;;;;;;;112475;1231;58992;-78
2023/07/09 08:33:01;;;;;;;5.20;3.70;;;;;;;;;;112650;1230;58863;-79
2023/07/09 08:35:27;;;;;;;5.40;4.20;;;;;;;;;;112663;1231;59753;-77
2023/07/09 08:37:53;;;;;;;4.60;3.90;;;;;;;;;;112617;1230;58930;-77
2023/07/09 08:40:18;;;;;;;4.20;3.60;;;;;;;;;;112402;1230;59000;-77
2023/07/09 08:42:46;;;;;;;3.90;3.50;;;;;;;;;;112652;1230;59260;-77
2023/07/09 08:45:21;;;;;;;5.60;3.90;;;;;;;;;;112484;1231;58821;-81
2023/07/09 08:47:55;;;;;;;4.00;3.60;;;;;;;;;;112673;1231;58947;-77
2023/07/09 08:50:23;;;;;;;4.30;3.90;;;;;;;;;;112667;1229;58971;-78
2023/07/09 08:52:50;;;;;;;3.70;3.50;;;;;;;;;;112590;1230;58827;-77
2023/07/09 08:55:18;;;;;;;3.60;3.20;;;;;;;;;;112391;1231;61740;-78
2023/07/09 08:57:45;;;;;;;3.30;3.00;;;;;;;;;;112644;1231;58902;-79
2023/07/09 09:00:14;;;;;;;3.80;3.30;;;;;;;;;;112642;1230;59549;-78
2023/07/09 09:03:09;;;;;;;3.60;3.30;;;;;;;;;;112631;1229;58858;-78
2023/07/09 09:05:37;;;;;;;4.20;3.40;;;;;;;;;;111885;1237;58882;-77
2023/07/09 09:08:11;;;;;;;3.60;3.30;;;;;;;;;;111854;1236;61749;-79
2023/07/09 09:10:57;;;;;;;3.80;3.50;;;;;;;;;;111913;1239;58988;-79
2023/07/09 09:13:24;;;;;;;4.20;3.40;;;;;;;;;;111883;1237;59886;-78
2023/07/09 09:15:50;;;;;;;4.40;4.00;;;;;;;;;;111909;1237;58982;-77
2023/07/09 09:18:22;;;;;;;4.30;3.70;;;;;;;;;;111904;1237;59015;-78
2023/07/09 09:21:01;;;;;;;3.90;3.60;;;;;;;;;;111861;1236;60555;-78
2023/07/09 09:23:31;;;;;;;3.70;3.40;;;;;;;;;;111913;1237;59053;-79
2023/07/09 09:26:00;;;;;;;3.50;3.20;;;;;;;;;;111862;1237;60788;-79
2023/07/09 09:28:27;;;;;;;4.20;3.40;;;;;;;;;;111859;1237;59034;-80
2023/07/09 09:30:52;;;;;;;3.90;3.60;;;;;;;;;;111909;1237;58921;-78
2023/07/09 09:33:18;;;;;;;3.50;3.20;;;;;;;;;;111891;1237;59464;-79
2023/07/09 09:35:44;;;;;;;4.00;3.70;;;;;;;;;;111904;1237;58943;-79
2023/07/09 09:38:11;;;;;;;3.80;3.50;;;;;;;;;;111901;1237;59901;-78
2023/07/09 09:40:37;;;;;;;4.50;4.00;;;;;;;;;;111980;1237;58918;-78
2023/07/09 09:43:10;;;;;;;4.20;3.80;;;;;;;;;;112620;1230;58746;-78
2023/07/09 09:45:38;;;;;;;3.50;3.20;;;;;;;;;;112656;1230;61588;-79
2023/07/09 09:48:19;;;;;;;3.60;3.30;;;;;;;;;;112656;1230;58794;-80
2023/07/09 09:50:46;;;;;;;3.70;3.40;;;;;;;;;;112654;1229;58859;-79
2023/07/09 09:53:23;;;;;;;4.30;3.60;;;;;;;;;;112485;1229;58997;-78
2023/07/09 09:55:49;;;;;;;4.00;3.40;;;;;;;;;;112665;1230;58788;-79
2023/07/09 09:58:16;;;;;;;4.30;3.20;;;;;;;;;;112692;1230;58865;-79
2023/07/09 10:00:47;;;;;;;4.10;3.30;;;;;;;;;;112664;1230;58881;-79
2023/07/09 10:03:13;;;;;;;3.80;3.50;;;;;;;;;;112639;1231;58690;-79
2023/07/09 10:05:44;;;;;;;3.70;3.40;;;;;;;;;;112667;1230;58968;-79
2023/07/09 10:08:33;;;;;;;4.60;3.70;;;;;;;;;;112669;1230;58862;-79
2023/07/09 10:11:15;;;;;;;4.00;3.60;;;;;;;;;;112688;1230;61925;-79
2023/07/09 10:13:42;;;;;;;4.90;3.50;;;;;;;;;;112661;1231;58903;-80
2023/07/09 10:16:31;;;;;;;4.40;4.00;;;;;;;;;;112618;1229;59660;-79
2023/07/09 10:19:08;;;;;;;3.80;3.50;;;;;;;;;;112656;1230;58911;-78
2023/07/09 10:21:41;;;;;;;5.10;3.50;;;;;;;;;;112710;1229;58791;-79
2023/07/09 10:24:14;;;;;;;3.70;3.40;;;;;;;;;;112390;1230;60684;-80
2023/07/09 10:26:48;;;;;;;4.00;3.50;;;;;;;;;;112641;1229;58893;-78
2023/07/09 10:29:35;;;;;;;4.60;4.20;;;;;;;;;;112648;1229;58848;-79
2023/07/09 10:32:09;;;;;;;4.00;3.60;;;;;;;;;;112611;1229;58895;-78
2023/07/09 10:34:38;;;;;;;4.00;3.70;;;;;;;;;;112340;1230;59048;-78
2023/07/09 10:37:19;;;;;;;5.40;3.30;;;;;;;;;;112619;1230;60427;-77
2023/07/09 10:39:51;;;;;;;3.80;3.40;;;;;;;;;;112613;1231;59135;-78
2023/07/09 10:42:24;;;;;;;3.80;3.30;;;;;;;;;;112634;1229;59128;-78
2023/07/09 10:44:56;;;;;;;3.70;3.40;;;;;;;;;;112643;1229;58923;-79
2023/07/09 10:47:28;;;;;;;3.20;3.00;;;;;;;;;;112554;1231;58848;-79
2023/07/09 10:49:54;;;;;;;3.80;3.40;;;;;;;;;;112804;1230;60596;-78
2023/07/09 10:52:20;;;;;;;3.80;3.40;;;;;;;;;;112565;1231;58894;-79
2023/07/09 10:55:00;;;;;;;5.80;3.50;;;;;;;;;;112681;1230;58999;-78
2023/07/09 10:57:30;;;;;;;4.80;3.50;;;;;;;;;;112628;1230;59823;-78
2023/07/09 10:59:56;;;;;;;3.80;3.50;;;;;;;;;;112658;1229;59282;-78
2023/07/09 11:02:32;;;;;;;3.90;3.60;;;;;;;;;;112687;1229;58872;-77
2023/07/09 11:05:03;;;;;;;4.00;3.70;;;;;;;;;;112686;1230;58896;-77
2023/07/09 11:07:41;;;;;;;4.90;3.60;;;;;;;;;;112629;1229;59648;-77
2023/07/09 11:10:11;;;;;;;4.00;3.30;;;;;;;;;;112647;1231;58939;-78
2023/07/09 11:12:39;;;;;;;4.00;3.70;;;;;;;;;;112652;1229;58890;-77
2023/07/09 11:15:27;;;;;;;4.40;3.40;;;;;;;;;;112652;1231;61845;-81
2023/07/09 11:17:53;;;;;;;4.50;3.80;;;;;;;;;;112860;1230;58758;-84
2023/07/09 11:20:18;;;;;;;4.50;4.10;;;;;;;;;;112802;1229;59404;-80
2023/07/09 11:22:50;;;;;;;3.40;3.10;;;;;;;;;;112712;1230;58909;-85
2023/07/09 11:25:26;;;;;;;3.80;3.50;;;;;;;;;;112757;1230;58948;-81
2023/07/09 11:27:55;;;;;;;3.90;3.40;;;;;;;;;;112675;1231;61935;-80
2023/07/09 11:30:22;;;;;;;4.40;3.60;;;;;;;;;;112645;1230;58758;-80
2023/07/09 11:32:52;;;;;;;4.50;3.40;;;;;;;;;;112777;1230;59713;-80
2023/07/09 11:35:25;;;;;;;4.40;3.60;;;;;;;;;;112881;1230;58699;-80
2023/07/09 11:37:53;;;;;;;3.90;3.60;;;;;;;;;;112512;1230;58964;-80
2023/07/09 11:40:19;;;;;;;4.40;4.10;;;;;;;;;;112644;1230;60661;-80
2023/07/09 11:42:51;;;;;;;8.40;5.30;;;;;;;;;;112644;1230;58881;-80
2023/07/09 11:45:22;;;;;;;4.60;3.60;;;;;;;;;;112654;1231;59870;-79
2023/07/09 11:47:59;;;;;;;6.50;3.90;;;;;;;;;;112317;1231;59006;-79
2023/07/09 11:50:29;;;;;;;4.20;3.80;;;;;;;;;;112635;1230;58775;-78
2023/07/09 11:53:04;;;;;;;6.20;4.00;;;;;;;;;;112635;1230;61768;-79
2023/07/09 11:55:42;;;;;;;4.10;3.80;;;;;;;;;;112649;1230;58796;-80
2023/07/09 11:58:10;;;;;;;4.90;3.60;;;;;;;;;;112536;1230;58985;-79
2023/07/09 12:00:41;;;;;;;5.00;3.90;;;;;;;;;;112620;1231;58883;-80
2023/07/09 12:03:10;;;;;;;5.00;3.60;;;;;;;;;;112611;1230;58944;-80
2023/07/09 12:05:36;;;;;;;4.40;4.00;;;;;;;;;;112613;1230;60752;-80
2023/07/09 12:08:02;;;;;;;4.70;4.20;;;;;;;;;;112628;1230;58923;-80
2023/07/09 12:10:32;;;;;;;6.10;3.80;;;;;;;;;;112596;1230;58910;-79
2023/07/09 12:12:59;;;;;;;3.60;3.30;;;;;;;;;;112583;1231;59041;-79
2023/07/09 12:15:26;;;;;;;4.80;3.30;;;;;;;;;;112652;1230;58843;-82
2023/07/09 12:18:02;;;;;;;5.90;3.60;;;;;;;;;;112619;1231;61202;-81
2023/07/09 12:20:33;;;;;;;3.80;3.50;;;;;;;;;;112656;1231;59013;-73
2023/07/09 12:23:00;;;;;;;4.30;3.60;;;;;;;;;;112296;1230;59702;-73
2023/07/09 12:25:27;;;;;;;3.80;3.50;;;;;;;;;;112614;1230;58899;-72
2023/07/09 12:27:53;;;;;;;4.30;3.70;;;;;;;;;;112659;1230;58939;-72
2023/07/09 12:30:19;;;;;;;4.00;3.70;;;;;;;;;;112610;1230;58978;-72
2023/07/09 12:32:46;;;;;;;4.00;3.60;;;;;;;;;;112634;1231;58998;-72
2023/07/09 12:35:13;;;;;;;3.70;3.40;;;;;;;;;;112273;1231;59878;-72
2023/07/09 12:37:41;;;;;;;3.60;3.30;;;;;;;;;;112634;1233;58861;-72
2023/07/09 12:40:12;;;;;;;3.80;3.50;;;;;;;;;;112610;1231;58760;-71
2023/07/09 12:42:39;;;;;;;3.30;3.10;;;;;;;;;;112605;1231;60421;-72
2023/07/09 12:45:05;;;;;;;5.50;3.40;;;;;;;;;;112311;1231;58981;-71
2023/07/09 12:47:31;;;;;;;4.20;3.80;;;;;;;;;;112592;1230;59031;-72
2023/07/09 12:50:01;;;;;;;4.30;3.90;;;;;;;;;;112612;1230;59336;-72
2023/07/09 12:52:26;;;;;;;4.40;3.30;;;;;;;;;;112602;1230;58911;-72
2023/07/09 12:54:56;;;;;;;4.40;3.50;;;;;;;;;;112649;1230;59021;-73
2023/07/09 12:57:22;;;;;;;3.60;3.30;;;;;;;;;;112628;1231;58874;-72
2023/07/09 12:59:48;;;;;;;4.10;3.80;;;;;;;;;;112571;1230;58970;-73
2023/07/09 13:02:18;;;;;;;4.10;3.80;;;;;;;;;;112618;1231;59233;-72
2023/07/09 13:04:44;;;;;;;4.40;3.60;;;;;;;;;;112610;1231;58887;-73
2023/07/09 13:07:26;;;;;;;4.50;4.10;;;;;;;;;;112606;1231;58914;-72
2023/07/09 13:09:53;;;;;;;4.70;3.40;;;;;;;;;;112642;1230;59033;-72
2023/07/09 13:12:19;;;;;;;4.00;3.60;;;;;;;;;;112127;1232;58976;-72
2023/07/09 13:14:55;;;;;;;3.50;3.30;;;;;;;;;;112630;1231;58922;-72
2023/07/09 13:17:20;;;;;;;4.00;3.60;;;;;;;;;;112641;1229;58943;-72
2023/07/09 13:19:46;;;;;;;4.20;3.70;;;;;;;;;;112633;1231;58956;-72
2023/07/09 13:22:16;;;;;;;4.30;4.00;;;;;;;;;;112671;1230;59861;-72
2023/07/09 13:24:42;;;;;;;3.90;3.60;;;;;;;;;;112610;1230;58946;-72
2023/07/09 13:27:12;;;;;;;3.80;3.50;;;;;;;;;;112280;1231;58968;-73
2023/07/09 13:29:39;;;;;;;4.70;3.90;;;;;;;;;;112297;1231;59120;-73
2023/07/09 13:32:09;;;;;;;4.00;3.70;;;;;;;;;;112620;1231;62034;-71
2023/07/09 13:34:35;;;;;;;3.80;3.40;;;;;;;;;;112651;1231;58795;-72
2023/07/09 13:37:01;;;;;;;3.50;3.30;;;;;;;;;;112575;1230;59668;-71
2023/07/09 13:39:27;;;;;;;5.20;3.50;;;;;;;;;;112642;1231;58925;-71
2023/07/09 13:41:55;;;;;;;4.80;3.90;;;;;;;;;;112651;1229;59411;-72
2023/07/09 13:44:30;;;;;;;3.90;3.60;;;;;;;;;;112596;1232;61688;-71
2023/07/09 13:46:57;;;;;;;3.90;3.50;;;;;;;;;;112570;1230;58912;-72
2023/07/09 13:49:24;;;;;;;3.50;3.20;;;;;;;;;;112570;1232;58884;-72
2023/07/09 13:51:51;;;;;;;4.60;3.60;;;;;;;;;;112610;1230;58989;-72
2023/07/09 13:54:19;;;;;;;4.30;4.00;;;;;;;;;;112634;1230;58965;-72
2023/07/09 13:56:44;;;;;;;4.80;3.70;;;;;;;;;;112631;1231;61714;-73
2023/07/09 13:59:21;;;;;;;3.90;3.60;;;;;;;;;;112660;1231;58858;-72
2023/07/09 14:01:48;;;;;;;4.00;3.70;;;;;;;;;;112553;1230;59068;-72
2023/07/09 14:04:14;;;;;;;4.00;3.70;;;;;;;;;;112574;1230;59206;-73
2023/07/09 14:06:40;;;;;;;4.70;4.30;;;;;;;;;;112628;1231;59141;-72
2023/07/09 14:09:08;;;;;;;3.80;3.40;;;;;;;;;;112312;1232;59001;-71
2023/07/09 14:11:41;;;;;;;5.40;4.30;;;;;;;;;;112600;1230;59154;-72
2023/07/09 14:14:21;;;;;;;6.60;3.70;;;;;;;;;;112585;1231;59717;-71
2023/07/09 14:16:47;;;;;;;4.10;3.70;;;;;;;;;;112646;1230;58908;-72
2023/07/09 14:19:18;;;;;;;4.50;4.10;;;;;;;;;;112632;1230;58921;-73
2023/07/09 14:21:43;;;;;;;6.20;4.10;;;;;;;;;;112291;1232;60509;-72
2023/07/09 14:24:20;;;;;;;5.60;3.70;;;;;;;;;;112599;1231;58885;-72
2023/07/09 14:26:47;;;;;;;4.10;3.80;;;;;;;;;;112595;1230;58881;-72